Time;durP1;ratioP1;P1;durP2;ratioP2;P2;SDS_P1;SDS_P2;PMS_P1;PMS_P2;Temp;Humidity;BMP_temperature;BMP_pressure;BME280_temperature;BME280_humidity;BME280_pressure;Samples;Min_cycle;Max_cycle;Signal;HPM_P1;HPM_P2
2023/03/22 00:02:21;;;;;;;16.15;9.38;;;10.50;99.90;;;;;;5003431;28;20060;-84
2023/03/22 00:04:47;;;;;;;17.25;9.52;;;10.50;99.90;;;;;;5001267;28;20068;-84
2023/03/22 00:07:13;;;;;;;15.95;8.45;;;10.50;99.90;;;;;;5035213;28;20116;-84
2023/03/22 00:09:39;;;;;;;12.77;8.25;;;10.50;99.90;;;;;;5000711;28;20121;-84
2023/03/22 00:12:05;;;;;;;14.18;8.50;;;10.50;99.90;;;;;;5016571;28;20044;-83
2023/03/22 00:14:30;;;;;;;16.33;8.40;;;10.50;99.90;;;;;;5014627;28;20120;-84
2023/03/22 00:16:56;;;;;;;13.30;8.52;;;10.40;99.90;;;;;;5001972;28;20034;-84
2023/03/22 00:19:22;;;;;;;16.02;8.32;;;10.50;99.90;;;;;;4999961;28;20041;-84
2023/03/22 00:21:47;;;;;;;16.95;8.45;;;10.40;99.90;;;;;;5019362;28;20038;-84
2023/03/22 00:24:13;;;;;;;15.35;8.00;;;10.50;99.90;;;;;;5021523;28;20307;-84
2023/03/22 00:26:39;;;;;;;12.85;7.50;;;10.40;99.90;;;;;;5043365;28;20036;-84
2023/03/22 00:29:04;;;;;;;10.95;7.97;;;10.40;99.90;;;;;;5004196;28;20395;-84
2023/03/22 00:31:30;;;;;;;12.93;8.18;;;10.40;99.90;;;;;;5000931;28;20283;-84
2023/03/22 00:33:56;;;;;;;14.80;8.13;;;10.30;99.90;;;;;;5029790;28;20683;-85
2023/03/22 00:36:22;;;;;;;16.25;8.05;;;10.30;99.90;;;;;;5045823;28;20124;-84
2023/03/22 00:38:47;;;;;;;11.77;8.32;;;10.30;99.90;;;;;;4998839;28;20628;-84
2023/03/22 00:41:20;;;;;;;13.98;7.65;;;10.30;99.90;;;;;;5000665;28;20423;-83
2023/03/22 00:43:47;;;;;;;17.13;8.30;;;10.30;99.90;;;;;;5001547;28;20045;-84
2023/03/22 00:46:15;;;;;;;11.65;7.53;;;10.20;99.90;;;;;;5016417;28;20132;-84
2023/03/22 00:48:44;;;;;;;13.80;7.43;;;10.20;99.90;;;;;;4999066;28;20385;-84
2023/03/22 00:51:11;;;;;;;13.32;7.53;;;10.20;99.90;;;;;;5031120;28;20045;-83
2023/03/22 00:53:39;;;;;;;15.27;7.15;;;10.10;99.90;;;;;;5000731;28;20045;-84
2023/03/22 00:56:07;;;;;;;13.82;7.70;;;10.10;99.90;;;;;;4999642;28;20229;-84
2023/03/22 00:58:33;;;;;;;12.35;7.63;;;10.20;99.90;;;;;;5028651;28;20029;-84
2023/03/22 01:00:59;;;;;;;11.20;7.70;;;10.10;99.90;;;;;;5000631;28;20048;-84
2023/03/22 01:03:24;;;;;;;15.85;7.75;;;10.10;99.90;;;;;;5015055;28;20124;-84
2023/03/22 01:05:54;;;;;;;17.27;7.57;;;10.10;99.90;;;;;;5015461;28;20098;-84
2023/03/22 01:08:21;;;;;;;15.27;7.55;;;10.10;99.90;;;;;;5026012;28;20037;-84
2023/03/22 01:10:48;;;;;;;12.95;6.85;;;10.00;99.90;;;;;;4997150;28;20134;-84
2023/03/22 01:13:14;;;;;;;15.50;6.53;;;10.00;99.90;;;;;;5013507;28;20041;-84
2023/03/22 01:15:40;;;;;;;11.60;6.90;;;9.90;99.90;;;;;;5013714;28;20050;-84
2023/03/22 01:18:06;;;;;;;12.85;7.00;;;9.90;99.90;;;;;;5015386;28;20121;-84
2023/03/22 01:20:33;;;;;;;12.35;6.00;;;9.90;99.90;;;;;;5000419;28;20736;-85
2023/03/22 01:23:02;;;;;;;12.98;6.05;;;9.90;99.90;;;;;;5003343;28;20378;-84
2023/03/22 01:25:28;;;;;;;13.60;5.55;;;9.90;99.90;;;;;;5017219;28;20045;-84
2023/03/22 01:27:54;;;;;;;11.82;5.88;;;9.90;99.90;;;;;;5002889;28;20048;-84
2023/03/22 01:30:20;;;;;;;11.05;5.93;;;9.90;99.90;;;;;;5001245;28;20044;-84
2023/03/22 01:32:45;;;;;;;12.32;5.82;;;9.90;99.90;;;;;;5044587;28;20076;-84
2023/03/22 01:35:11;;;;;;;10.60;4.88;;;9.90;99.90;;;;;;5015385;28;20193;-84
2023/03/22 01:37:37;;;;;;;10.57;5.07;;;9.90;99.90;;;;;;5027287;28;20076;-84
2023/03/22 01:40:06;;;;;;;12.77;4.80;;;9.80;99.90;;;;;;5013131;28;20379;-84
2023/03/22 01:42:32;;;;;;;10.98;5.03;;;9.80;99.90;;;;;;4999631;28;20042;-84
2023/03/22 01:45:13;;;;;;;12.75;4.95;;;9.80;99.90;;;;;;5016625;28;20580;-84
2023/03/22 01:47:53;;;;;;;7.88;4.10;;;9.80;99.90;;;;;;5030725;28;20485;-84
2023/03/22 01:50:20;;;;;;;8.98;4.00;;;9.80;99.90;;;;;;4999301;28;20106;-83
2023/03/22 01:52:49;;;;;;;9.95;3.60;;;9.80;99.90;;;;;;5002230;28;20053;-84
2023/03/22 01:55:21;;;;;;;8.60;3.30;;;9.70;99.90;;;;;;4999158;28;20041;-84
2023/03/22 01:57:48;;;;;;;10.15;3.78;;;9.70;99.90;;;;;;4996365;28;20281;-84
2023/03/22 02:00:14;;;;;;;7.85;3.30;;;9.70;99.90;;;;;;4999998;28;20365;-84
2023/03/22 02:02:47;;;;;;;9.93;3.30;;;9.70;99.90;;;;;;4999866;28;20045;-85
2023/03/22 02:05:12;;;;;;;8.52;3.38;;;9.70;99.90;;;;;;4998440;28;20038;-84
2023/03/22 02:07:40;;;;;;;9.10;3.65;;;9.70;99.90;;;;;;5017138;28;20348;-84
2023/03/22 02:10:14;;;;;;;9.52;3.60;;;9.60;99.90;;;;;;5000735;28;20037;-84
2023/03/22 02:12:46;;;;;;;12.02;3.75;;;9.70;99.90;;;;;;4996995;28;20125;-84
2023/03/22 02:15:23;;;;;;;10.77;4.30;;;9.70;99.90;;;;;;5000121;28;20108;-83
2023/03/22 02:18:30;;;;;;;12.35;2.92;;;9.70;99.90;;;;;;4999019;28;20029;-84
2023/03/22 02:21:34;;;;;;;10.57;3.22;;;9.60;99.90;;;;;;4997105;28;20032;-84
2023/03/22 02:24:36;;;;;;;9.45;2.90;;;9.60;99.90;;;;;;4997048;28;20305;-84
2023/03/22 02:27:27;;;;;;;8.35;3.30;;;9.60;99.90;;;;;;5010904;28;20038;-84
2023/03/22 02:29:53;;;;;;;10.32;3.70;;;9.60;99.90;;;;;;4978241;28;20045;-83
2023/03/22 02:32:53;;;;;;;10.90;2.85;;;9.60;99.90;;;;;;5039527;28;20351;-84
2023/03/22 02:35:33;;;;;;;10.75;3.75;;;9.60;99.90;;;;;;5020892;28;20114;-84
2023/03/22 02:38:29;;;;;;;10.20;3.53;;;9.60;99.90;;;;;;5044207;28;20155;-85
2023/03/22 02:41:09;;;;;;;10.07;3.20;;;9.60;99.90;;;;;;5031427;28;20402;-84
2023/03/22 02:43:40;;;;;;;9.18;2.97;;;9.60;99.90;;;;;;5017648;28;20061;-84
2023/03/22 02:46:12;;;;;;;9.70;3.28;;;9.60;99.90;;;;;;5028666;28;20037;-84
2023/03/22 02:48:44;;;;;;;8.20;3.30;;;9.60;99.90;;;;;;5032902;28;20080;-84
2023/03/22 02:51:23;;;;;;;11.75;3.00;;;9.60;99.90;;;;;;5030337;28;20041;-84
2023/03/22 02:54:22;;;;;;;11.00;2.97;;;9.60;99.90;;;;;;5001160;28;20048;-84
2023/03/22 02:57:19;;;;;;;12.55;2.72;;;9.50;99.90;;;;;;5005448;28;20386;-84
2023/03/22 02:59:46;;;;;;;11.65;3.83;;;9.60;99.90;;;;;;4994697;28;20045;-84
2023/03/22 03:02:17;;;;;;;10.20;2.78;;;9.60;99.90;;;;;;5004448;28;20065;-84
2023/03/22 03:04:50;;;;;;;9.18;2.70;;;9.50;99.90;;;;;;5018261;28;20049;-84
2023/03/22 03:07:23;;;;;;;8.88;2.67;;;9.50;99.90;;;;;;5002400;28;20037;-84
2023/03/22 03:09:50;;;;;;;10.23;2.95;;;9.50;99.90;;;;;;5030462;28;21061;-84
2023/03/22 03:12:26;;;;;;;9.18;2.72;;;9.60;99.90;;;;;;5019447;28;20046;-84
2023/03/22 03:14:53;;;;;;;8.50;2.97;;;9.60;99.90;;;;;;5035285;28;20116;-84
2023/03/22 03:17:50;;;;;;;12.02;3.13;;;9.70;99.90;;;;;;5002772;28;20034;-84
2023/03/22 03:20:28;;;;;;;13.18;2.92;;;9.70;99.90;;;;;;5001626;28;20482;-84
2023/03/22 03:23:24;;;;;;;9.15;2.70;;;9.70;99.90;;;;;;5019783;28;20432;-84
2023/03/22 03:26:14;;;;;;;7.32;2.72;;;9.70;99.90;;;;;;5019387;28;20377;-84
2023/03/22 03:28:49;;;;;;;10.20;3.45;;;9.70;99.90;;;;;;5004717;28;20455;-83
2023/03/22 03:31:43;;;;;;;10.27;3.13;;;9.70;99.90;;;;;;5040210;28;20147;-84
2023/03/22 03:34:25;;;;;;;12.93;2.90;;;9.80;99.90;;;;;;5017080;28;20045;-84
2023/03/22 03:37:08;;;;;;;11.40;3.00;;;9.70;99.90;;;;;;5019119;28;20086;-84
2023/03/22 03:39:38;;;;;;;9.55;2.97;;;9.70;99.90;;;;;;5001240;28;20483;-83
2023/03/22 03:42:10;;;;;;;8.38;2.83;;;9.70;99.90;;;;;;5002272;28;20558;-84
2023/03/22 03:44:37;;;;;;;9.57;2.83;;;9.70;99.90;;;;;;5032243;28;20056;-84
2023/03/22 03:47:06;;;;;;;9.02;2.92;;;9.70;99.90;;;;;;5031716;28;20073;-84
2023/03/22 03:49:32;;;;;;;8.75;3.03;;;9.60;99.90;;;;;;4998610;28;20079;-84
2023/03/22 03:51:58;;;;;;;11.93;3.00;;;9.70;99.90;;;;;;5002742;28;20050;-84
2023/03/22 03:54:25;;;;;;;10.98;3.42;;;9.70;99.90;;;;;;4999525;28;20080;-84
2023/03/22 03:56:50;;;;;;;10.32;3.17;;;9.70;99.90;;;;;;5017359;28;20044;-84
2023/03/22 03:59:17;;;;;;;10.05;3.50;;;9.70;99.90;;;;;;5012418;28;20034;-84
2023/03/22 04:01:51;;;;;;;11.45;3.38;;;9.70;99.90;;;;;;4997313;28;20041;-84
2023/03/22 04:04:25;;;;;;;9.68;3.05;;;9.60;99.90;;;;;;4997884;28;20037;-84
2023/03/22 04:06:52;;;;;;;7.03;3.08;;;9.70;99.90;;;;;;5002142;28;20034;-84
2023/03/22 04:09:18;;;;;;;8.73;3.35;;;9.70;99.90;;;;;;4996675;28;20129;-84
2023/03/22 04:11:44;;;;;;;8.77;3.17;;;9.70;99.90;;;;;;4997370;28;20145;-85
2023/03/22 04:14:10;;;;;;;7.18;3.08;;;9.60;99.90;;;;;;5024280;28;20044;-85
2023/03/22 04:16:39;;;;;;;9.88;3.08;;;9.60;99.90;;;;;;5014805;28;20098;-84
2023/03/22 04:19:04;;;;;;;11.43;3.42;;;9.60;99.90;;;;;;5013128;28;20044;-84
2023/03/22 04:21:30;;;;;;;10.73;3.63;;;9.70;99.90;;;;;;5026602;28;20033;-84
2023/03/22 04:23:55;;;;;;;12.18;3.45;;;9.60;99.90;;;;;;5000647;28;20410;-85
2023/03/22 04:26:23;;;;;;;9.23;3.55;;;9.60;99.90;;;;;;4996758;28;20084;-84
2023/03/22 04:28:48;;;;;;;15.00;3.50;;;9.60;99.90;;;;;;5008054;28;20038;-85
2023/03/22 04:31:14;;;;;;;9.55;3.53;;;9.60;99.90;;;;;;5016492;28;20048;-84
2023/03/22 04:33:45;;;;;;;10.23;3.53;;;9.70;99.90;;;;;;4998536;28;20402;-85
2023/03/22 04:36:14;;;;;;;9.63;3.42;;;9.70;99.90;;;;;;4962457;28;1139513;-85
2023/03/22 04:38:41;;;;;;;11.38;3.78;;;9.70;99.90;;;;;;5013701;28;20573;-83
2023/03/22 04:41:07;;;;;;;8.70;4.07;;;9.70;99.90;;;;;;5001891;28;20049;-84
2023/03/22 04:43:33;;;;;;;10.57;4.15;;;9.70;99.90;;;;;;5025072;28;20071;-84
2023/03/22 04:46:00;;;;;;;11.98;4.90;;;9.70;99.90;;;;;;5000066;28;20065;-84
2023/03/22 04:48:28;;;;;;;10.15;4.63;;;9.70;99.90;;;;;;5041568;28;20047;-84
2023/03/22 04:50:56;;;;;;;9.88;4.93;;;9.80;99.90;;;;;;4996144;28;20107;-84
2023/03/22 04:53:26;;;;;;;8.63;4.75;;;9.70;99.90;;;;;;5001016;28;20065;-83
2023/03/22 04:55:55;;;;;;;13.50;5.72;;;9.80;99.90;;;;;;5029711;28;20350;-83
2023/03/22 04:58:22;;;;;;;12.60;6.05;;;9.80;99.90;;;;;;5001617;28;20463;-85
2023/03/22 05:00:51;;;;;;;13.73;6.70;;;9.90;99.90;;;;;;5021255;28;20069;-84
2023/03/22 05:03:20;;;;;;;11.88;7.13;;;9.90;99.90;;;;;;5001538;28;20210;-85
2023/03/22 05:05:55;;;;;;;12.35;6.82;;;9.90;99.90;;;;;;4997399;28;20859;-84
2023/03/22 05:08:23;;;;;;;10.35;6.50;;;9.90;99.90;;;;;;5030953;28;20041;-84
2023/03/22 05:10:51;;;;;;;16.38;7.32;;;10.00;99.90;;;;;;5000168;28;20441;-84
2023/03/22 05:13:18;;;;;;;14.05;8.05;;;9.90;99.90;;;;;;5023791;28;20417;-84
2023/03/22 05:15:44;;;;;;;15.02;8.25;;;10.00;99.90;;;;;;5015931;28;20073;-84
2023/03/22 05:18:10;;;;;;;16.80;8.30;;;10.00;99.90;;;;;;5024529;28;20395;-84
2023/03/22 05:20:36;;;;;;;13.45;8.55;;;10.00;99.90;;;;;;5000167;28;20037;-84
2023/03/22 05:23:03;;;;;;;15.88;8.80;;;10.00;99.90;;;;;;5026806;28;20102;-84
2023/03/22 05:25:29;;;;;;;14.85;9.02;;;10.00;99.90;;;;;;5014809;28;20076;-84
2023/03/22 05:28:00;;;;;;;17.45;9.32;;;10.10;99.90;;;;;;4998547;28;20083;-84
2023/03/22 05:30:27;;;;;;;15.45;9.60;;;10.00;99.90;;;;;;5002060;28;20041;-84
2023/03/22 05:33:02;;;;;;;14.77;9.50;;;10.00;99.90;;;;;;5039925;28;20029;-84
2023/03/22 05:35:31;;;;;;;;;;;10.00;99.90;;;;;;5000188;28;20541;-84
2023/03/22 05:37:57;;;;;;;21.10;11.05;;;10.10;99.90;;;;;;5029381;28;19959;-84
2023/03/22 05:40:24;;;;;;;15.30;10.52;;;10.00;99.90;;;;;;5015220;28;20042;-84
2023/03/22 05:42:51;;;;;;;16.60;10.20;;;10.10;99.90;;;;;;4998946;28;20033;-84
2023/03/22 05:45:17;;;;;;;18.63;11.05;;;10.10;99.90;;;;;;5000332;28;20041;-84
2023/03/22 05:47:45;;;;;;;17.80;11.15;;;10.10;99.90;;;;;;5022304;28;20042;-84
2023/03/22 05:50:15;;;;;;;20.50;11.23;;;10.10;99.90;;;;;;5031142;28;20033;-84
2023/03/22 05:52:41;;;;;;;15.88;11.40;;;10.10;99.90;;;;;;5015257;28;20053;-84
2023/03/22 05:55:08;;;;;;;19.38;11.05;;;10.10;99.90;;;;;;5015080;28;20189;-84
2023/03/22 05:57:33;;;;;;;18.95;11.18;;;10.10;99.90;;;;;;4998731;28;20033;-84
2023/03/22 06:00:00;;;;;;;18.08;11.30;;;10.20;99.90;;;;;;5044329;28;20088;-84
2023/03/22 06:02:27;;;;;;;22.58;12.52;;;10.20;99.90;;;;;;4999711;28;20045;-84
2023/03/22 06:04:53;;;;;;;17.40;12.13;;;10.20;99.90;;;;;;4996505;28;20127;-83
2023/03/22 06:07:19;;;;;;;18.23;11.48;;;10.20;99.90;;;;;;5002198;28;20271;-85
2023/03/22 06:09:45;;;;;;;23.20;12.10;;;10.20;99.90;;;;;;4999857;28;20513;-84
2023/03/22 06:12:11;;;;;;;18.35;12.23;;;10.20;99.90;;;;;;5015399;28;20045;-84
2023/03/22 06:14:36;;;;;;;19.67;11.63;;;10.20;99.90;;;;;;5015460;28;20563;-84
2023/03/22 06:17:02;;;;;;;19.55;12.10;;;10.20;99.90;;;;;;4997087;28;20111;-84
2023/03/22 06:19:28;;;;;;;20.10;11.90;;;10.30;99.90;;;;;;4997365;28;20116;-85
2023/03/22 06:21:54;;;;;;;22.92;11.70;;;10.30;99.90;;;;;;5028257;28;20033;-84
2023/03/22 06:24:20;;;;;;;19.73;12.20;;;10.30;99.90;;;;;;4999148;28;20051;-84
2023/03/22 06:26:46;;;;;;;19.55;12.63;;;10.40;99.90;;;;;;4998895;28;20160;-84
2023/03/22 06:29:12;;;;;;;20.17;11.68;;;10.40;99.90;;;;;;5040404;28;20033;-84
2023/03/22 06:31:37;;;;;;;18.00;11.20;;;10.40;99.90;;;;;;4999560;28;20068;-84
2023/03/22 06:34:04;;;;;;;18.15;11.20;;;10.40;99.90;;;;;;5015093;28;20033;-84
2023/03/22 06:36:30;;;;;;;17.38;11.45;;;10.50;99.90;;;;;;4996564;28;20416;-84
2023/03/22 06:38:59;;;;;;;18.27;12.27;;;10.50;99.90;;;;;;5014065;28;20666;-84
2023/03/22 06:41:25;;;;;;;18.92;11.13;;;10.50;99.90;;;;;;5001974;28;20872;-84
2023/03/22 06:43:51;;;;;;;19.30;11.45;;;10.50;99.90;;;;;;4998261;28;20038;-84
2023/03/22 06:46:17;;;;;;;14.70;11.40;;;10.50;99.90;;;;;;5012839;28;20746;-84
2023/03/22 06:48:42;;;;;;;20.20;12.60;;;10.50;99.90;;;;;;4997263;28;20432;-84
2023/03/22 06:51:08;;;;;;;19.83;11.10;;;10.60;99.90;;;;;;4995460;28;20119;-84
2023/03/22 06:53:34;;;;;;;18.33;11.60;;;10.60;99.90;;;;;;5041526;28;20224;-84
2023/03/22 06:56:00;;;;;;;18.48;11.65;;;10.70;99.90;;;;;;4998930;28;20387;-83
2023/03/22 06:58:26;;;;;;;18.48;11.32;;;10.70;99.90;;;;;;5000377;28;20044;-84
2023/03/22 07:00:55;;;;;;;16.98;10.95;;;10.70;99.90;;;;;;5014336;28;20481;-83
2023/03/22 07:03:21;;;;;;;18.95;11.38;;;10.80;99.90;;;;;;4997700;28;20395;-83
2023/03/22 07:05:47;;;;;;;17.58;11.10;;;10.80;99.90;;;;;;4996309;28;20113;-84
2023/03/22 07:08:12;;;;;;;15.45;10.70;;;10.90;99.90;;;;;;5000688;28;20060;-83
2023/03/22 07:10:38;;;;;;;15.70;10.73;;;10.90;99.90;;;;;;4999243;28;20492;-84
2023/03/22 07:13:04;;;;;;;17.95;10.68;;;11.10;99.90;;;;;;5000850;28;20048;-84
2023/03/22 07:15:33;;;;;;;14.65;10.27;;;11.20;99.90;;;;;;5013011;28;20034;-84
2023/03/22 07:18:01;;;;;;;15.50;11.55;;;11.30;99.90;;;;;;5001349;28;20422;-83
2023/03/22 07:20:27;;;;;;;18.30;10.80;;;11.20;99.90;;;;;;5013974;28;20033;-84
2023/03/22 07:22:53;;;;;;;16.73;10.52;;;11.20;99.90;;;;;;5003404;28;20409;-83
2023/03/22 07:25:19;;;;;;;15.70;10.57;;;11.10;99.90;;;;;;5001154;28;20038;-83
2023/03/22 07:27:45;;;;;;;16.15;10.40;;;11.10;99.90;;;;;;5021835;28;20277;-84
2023/03/22 07:30:11;;;;;;;15.75;10.40;;;11.10;99.90;;;;;;5003440;28;20036;-83
2023/03/22 07:32:39;;;;;;;16.00;10.23;;;11.10;99.90;;;;;;5000680;28;20230;-83
2023/03/22 07:35:05;;;;;;;14.82;9.73;;;11.20;99.90;;;;;;5014385;28;20414;-83
2023/03/22 07:37:31;;;;;;;15.43;9.57;;;11.20;99.90;;;;;;5041123;28;20536;-84
2023/03/22 07:39:57;;;;;;;17.75;9.63;;;11.30;99.90;;;;;;5018224;28;20041;-83
2023/03/22 07:42:22;;;;;;;15.23;9.13;;;11.20;99.90;;;;;;5000963;28;20117;-83
2023/03/22 07:44:48;;;;;;;15.25;9.05;;;11.10;99.90;;;;;;4999809;28;20583;-83
2023/03/22 07:47:14;;;;;;;16.17;9.45;;;11.10;99.90;;;;;;5000300;28;20581;-84
2023/03/22 07:49:42;;;;;;;16.83;9.18;;;11.10;99.90;;;;;;5000151;28;20050;-84
2023/03/22 07:52:08;;;;;;;14.65;8.13;;;11.10;99.90;;;;;;5018981;28;20261;-84
2023/03/22 07:54:34;;;;;;;12.35;8.45;;;11.10;99.90;;;;;;5001767;28;20040;-84
2023/03/22 07:57:00;;;;;;;11.90;7.78;;;11.00;99.90;;;;;;5001653;28;20044;-83
2023/03/22 07:59:25;;;;;;;13.27;8.30;;;11.00;99.90;;;;;;4999186;28;20049;-84
2023/03/22 08:01:51;;;;;;;14.18;7.85;;;11.00;99.90;;;;;;5001112;28;20410;-84
2023/03/22 08:04:18;;;;;;;11.05;7.55;;;11.10;99.90;;;;;;5031170;28;20051;-84
2023/03/22 08:06:45;;;;;;;15.02;8.20;;;11.20;99.90;;;;;;5029116;28;20048;-83
2023/03/22 08:09:11;;;;;;;10.48;7.00;;;11.40;99.90;;;;;;4999510;28;20064;-84
2023/03/22 08:11:37;;;;;;;15.55;8.50;;;11.60;99.90;;;;;;5018282;28;22904;-84
2023/03/22 08:14:02;;;;;;;13.27;7.20;;;11.90;99.90;;;;;;5013182;28;20060;-84
2023/03/22 08:16:28;;;;;;;14.55;7.97;;;11.70;99.90;;;;;;5017914;28;20068;-84
2023/03/22 08:18:54;;;;;;;14.00;7.40;;;11.80;99.90;;;;;;5001348;28;20466;-83
2023/03/22 08:21:20;;;;;;;10.82;6.40;;;11.70;99.90;;;;;;5002402;28;20506;-84
2023/03/22 08:23:46;;;;;;;11.80;6.22;;;11.50;99.90;;;;;;5001264;28;20675;-83
2023/03/22 08:26:12;;;;;;;15.45;7.10;;;11.40;99.90;;;;;;5017544;28;20033;-84
2023/03/22 08:28:38;;;;;;;16.10;6.70;;;11.40;99.90;;;;;;5022539;28;20088;-84
2023/03/22 08:31:14;;;;;;;12.55;6.50;;;11.50;99.90;;;;;;5002619;28;20112;-84
2023/03/22 08:33:41;;;;;;;11.90;6.80;;;11.40;99.90;;;;;;5002080;28;20033;-84
2023/03/22 08:36:11;;;;;;;12.38;6.50;;;11.50;99.90;;;;;;5000752;28;20054;-84
2023/03/22 08:38:36;;;;;;;10.55;5.88;;;11.60;99.90;;;;;;5019299;28;20060;-83
2023/03/22 08:41:02;;;;;;;12.10;6.05;;;11.80;99.90;;;;;;5001076;28;20033;-84
2023/03/22 08:43:28;;;;;;;12.32;6.38;;;11.70;99.90;;;;;;5013874;28;20996;-84
2023/03/22 08:45:54;;;;;;;10.05;5.60;;;11.90;99.90;;;;;;5015605;28;20042;-83
2023/03/22 08:48:20;;;;;;;11.23;5.68;;;11.90;99.90;;;;;;5042047;28;20035;-84
2023/03/22 08:50:45;;;;;;;10.77;5.72;;;12.00;99.90;;;;;;5000954;28;20051;-83
2023/03/22 08:53:12;;;;;;;12.63;5.63;;;12.00;99.90;;;;;;5002886;28;20037;-84
2023/03/22 08:55:43;;;;;;;12.48;5.53;;;12.10;99.90;;;;;;5017302;28;20048;-84
2023/03/22 08:58:11;;;;;;;11.70;5.82;;;12.40;99.90;;;;;;5002929;28;20484;-84
2023/03/22 09:00:37;;;;;;;10.70;5.40;;;12.70;99.90;;;;;;5001232;28;20052;-84
2023/03/22 09:03:04;;;;;;;8.00;4.65;;;12.80;99.90;;;;;;4998792;28;20434;-84
2023/03/22 09:05:29;;;;;;;10.95;5.13;;;13.00;99.90;;;;;;5000302;28;20045;-84
2023/03/22 09:07:55;;;;;;;9.18;4.82;;;12.80;99.90;;;;;;5000667;28;20055;-84
2023/03/22 09:10:21;;;;;;;10.80;5.00;;;12.60;99.90;;;;;;5011717;28;20048;-83
2023/03/22 09:12:47;;;;;;;9.95;4.57;;;12.60;99.90;;;;;;5018704;28;20250;-83
2023/03/22 09:15:12;;;;;;;11.18;5.13;;;12.60;99.90;;;;;;5037627;28;20045;-84
2023/03/22 09:17:38;;;;;;;8.40;4.70;;;12.50;99.90;;;;;;5017376;28;20060;-84
2023/03/22 09:20:06;;;;;;;8.63;4.80;;;12.30;99.90;;;;;;5015525;28;20052;-84
2023/03/22 09:22:31;;;;;;;10.68;5.03;;;12.20;99.90;;;;;;4998594;28;20056;-84
2023/03/22 09:24:57;;;;;;;10.25;4.60;;;12.00;99.90;;;;;;5013138;28;20037;-83
2023/03/22 09:27:23;;;;;;;12.88;5.13;;;12.10;99.90;;;;;;5001496;28;20090;-83
2023/03/22 09:29:50;;;;;;;9.05;4.43;;;12.10;99.90;;;;;;5014632;28;20458;-84
2023/03/22 09:32:16;;;;;;;9.43;4.35;;;12.20;99.90;;;;;;4999116;28;20045;-84
2023/03/22 09:34:42;;;;;;;11.50;4.82;;;12.30;99.90;;;;;;4997122;28;20041;-84
2023/03/22 09:37:07;;;;;;;9.40;4.13;;;12.30;99.90;;;;;;4998971;28;20054;-84
2023/03/22 09:39:37;;;;;;;11.48;4.47;;;12.20;99.90;;;;;;5017134;28;20247;-84
2023/03/22 09:42:08;;;;;;;10.40;5.03;;;12.20;99.90;;;;;;4999625;28;20914;-83
2023/03/22 09:44:40;;;;;;;10.27;5.88;;;12.30;99.90;;;;;;5001440;28;20044;-83
2023/03/22 09:47:12;;;;;;;11.52;4.70;;;12.40;99.90;;;;;;5013070;28;20198;-84
2023/03/22 09:49:41;;;;;;;8.80;4.57;;;12.30;99.90;;;;;;4997613;28;20056;-84
2023/03/22 09:52:16;;;;;;;9.52;4.53;;;12.30;99.90;;;;;;5014494;28;20041;-84
2023/03/22 09:54:47;;;;;;;10.75;4.20;;;12.20;99.90;;;;;;5014104;28;20514;-83
2023/03/22 09:57:32;;;;;;;12.20;5.00;;;12.10;99.90;;;;;;5012889;28;20168;-84
2023/03/22 10:00:26;;;;;;;11.10;4.68;;;12.00;99.90;;;;;;4998397;28;20108;-84
2023/03/22 10:03:13;;;;;;;7.65;4.57;;;12.00;99.90;;;;;;5016077;28;20029;-84
2023/03/22 10:05:48;;;;;;;8.20;3.80;;;11.90;99.90;;;;;;4999681;28;20096;-83
2023/03/22 10:08:16;;;;;;;8.98;4.38;;;11.80;99.90;;;;;;5022617;28;20041;-83
2023/03/22 10:10:42;;;;;;;10.50;4.68;;;11.80;99.90;;;;;;4999212;28;20040;-83
2023/03/22 10:13:18;;;;;;;9.73;4.35;;;11.70;99.90;;;;;;5013660;28;20266;-84
2023/03/22 10:15:57;;;;;;;10.93;4.13;;;11.60;99.90;;;;;;4998241;28;20037;-83
2023/03/22 10:18:34;;;;;;;9.52;4.28;;;11.50;99.90;;;;;;4998657;28;20048;-84
2023/03/22 10:21:04;;;;;;;10.50;4.30;;;11.50;99.90;;;;;;5036988;28;20253;-84
2023/03/22 10:23:35;;;;;;;9.35;4.45;;;11.50;99.90;;;;;;5016085;28;20072;-84
2023/03/22 10:26:03;;;;;;;11.32;4.68;;;11.50;99.90;;;;;;5011811;28;20041;-83
2023/03/22 10:28:40;;;;;;;12.25;4.90;;;11.40;99.90;;;;;;4999210;28;20902;-83
2023/03/22 10:31:13;;;;;;;11.93;4.13;;;11.40;99.90;;;;;;5026369;28;20045;-84
2023/03/22 10:34:04;;;;;;;11.18;4.95;;;11.30;99.90;;;;;;5009722;28;20175;-82
2023/03/22 10:36:33;;;;;;;11.82;5.03;;;11.30;99.90;;;;;;5013124;28;21029;-83
2023/03/22 10:39:24;;;;;;;12.32;5.00;;;11.30;99.90;;;;;;5014853;28;20541;-84
2023/03/22 10:41:53;;;;;;;13.50;5.18;;;11.30;99.90;;;;;;5031558;28;20498;-84
2023/03/22 10:44:23;;;;;;;11.82;5.25;;;11.30;99.90;;;;;;5000775;28;20483;-84
2023/03/22 10:46:51;;;;;;;8.35;4.90;;;11.20;99.90;;;;;;4998032;28;20052;-84
2023/03/22 10:49:34;;;;;;;7.82;4.70;;;11.30;99.90;;;;;;4994286;28;20033;-84
2023/03/22 10:52:21;;;;;;;10.35;4.75;;;11.20;99.90;;;;;;5000652;28;20830;-83
2023/03/22 10:54:48;;;;;;;11.45;4.63;;;11.20;99.90;;;;;;5019513;28;20034;-84
2023/03/22 10:57:13;;;;;;;7.20;4.13;;;11.10;99.90;;;;;;5017249;28;20033;-84
2023/03/22 10:59:52;;;;;;;11.65;4.82;;;11.20;99.90;;;;;;5018168;28;20042;-84
2023/03/22 11:02:20;;;;;;;8.45;4.93;;;11.20;99.90;;;;;;5001554;28;20040;-84
2023/03/22 11:04:51;;;;;;;7.78;4.20;;;11.30;99.90;;;;;;5000748;28;20030;-84
2023/03/22 11:07:43;;;;;;;9.70;3.90;;;11.20;99.90;;;;;;5002638;28;20783;-84
2023/03/22 11:10:09;;;;;;;12.48;4.45;;;11.20;99.90;;;;;;5001557;28;20045;-84
2023/03/22 11:12:47;;;;;;;11.15;4.88;;;11.20;99.90;;;;;;5002045;28;20057;-84
2023/03/22 11:15:31;;;;;;;8.80;4.60;;;11.20;99.90;;;;;;5002472;28;20048;-84
2023/03/22 11:18:04;;;;;;;9.27;4.25;;;11.30;99.90;;;;;;5001902;28;20398;-83
2023/03/22 11:20:31;;;;;;;8.82;4.57;;;11.20;99.90;;;;;;4996484;28;20068;-83
2023/03/22 11:23:01;;;;;;;6.72;4.05;;;11.20;99.90;;;;;;5018715;28;20033;-84
2023/03/22 11:25:30;;;;;;;10.00;4.47;;;11.30;99.90;;;;;;5016058;28;20127;-84
2023/03/22 11:28:19;;;;;;;8.68;4.88;;;11.30;99.90;;;;;;5004028;28;20521;-83
2023/03/22 11:31:03;;;;;;;11.30;4.32;;;11.30;99.90;;;;;;5018833;28;20037;-83
2023/03/22 11:33:30;;;;;;;10.37;4.37;;;11.30;99.90;;;;;;5001200;28;20586;-84
2023/03/22 11:35:59;;;;;;;8.93;4.55;;;11.40;99.90;;;;;;5000508;28;20054;-84
2023/03/22 11:38:30;;;;;;;10.52;5.00;;;11.40;99.90;;;;;;5033788;28;20053;-84
2023/03/22 11:41:01;;;;;;;7.57;4.75;;;11.50;99.90;;;;;;5005358;28;20201;-84
2023/03/22 11:43:39;;;;;;;9.95;5.18;;;11.50;99.90;;;;;;5018985;28;20595;-84
2023/03/22 11:46:07;;;;;;;6.72;4.55;;;11.50;99.90;;;;;;5019431;28;20041;-83
2023/03/22 11:48:34;;;;;;;9.52;4.72;;;11.60;99.90;;;;;;5003567;28;20121;-84
2023/03/22 11:51:07;;;;;;;7.60;3.95;;;11.50;99.90;;;;;;4997631;28;20575;-83
2023/03/22 11:53:37;;;;;;;11.00;4.25;;;11.50;99.90;;;;;;5018595;28;20044;-83
2023/03/22 11:56:06;;;;;;;6.95;4.18;;;11.40;99.90;;;;;;5013982;28;20259;-84
2023/03/22 11:58:41;;;;;;;7.68;3.97;;;11.50;99.90;;;;;;5004786;28;20041;-84
2023/03/22 12:01:14;;;;;;;6.13;3.55;;;11.50;99.90;;;;;;5031545;28;20083;-84
2023/03/22 12:03:47;;;;;;;8.88;3.80;;;11.40;99.90;;;;;;5015717;28;20678;-84
2023/03/22 12:06:23;;;;;;;6.22;3.70;;;11.50;99.90;;;;;;4997680;28;20095;-83
2023/03/22 12:09:03;;;;;;;9.25;3.85;;;11.40;99.90;;;;;;5030560;28;20037;-84
2023/03/22 12:11:35;;;;;;;8.30;3.50;;;11.50;99.90;;;;;;5002273;28;20038;-83
2023/03/22 12:14:16;;;;;;;9.30;4.10;;;11.40;99.90;;;;;;5012741;28;20341;-83
2023/03/22 12:16:47;;;;;;;6.25;3.45;;;11.40;99.90;;;;;;5001596;28;20340;-84
2023/03/22 12:19:28;;;;;;;7.15;3.60;;;11.30;99.90;;;;;;4998065;28;20052;-83
2023/03/22 12:21:54;;;;;;;5.88;3.50;;;11.30;99.90;;;;;;5040615;28;20029;-84
2023/03/22 12:24:25;;;;;;;7.07;3.70;;;11.30;99.90;;;;;;4999059;28;20068;-84
2023/03/22 12:27:03;;;;;;;6.15;3.58;;;11.30;99.90;;;;;;5000411;28;20534;-84
2023/03/22 12:29:30;;;;;;;6.80;3.53;;;11.30;99.90;;;;;;5017737;28;20064;-83
2023/03/22 12:32:04;;;;;;;10.57;3.83;;;11.20;99.90;;;;;;5003833;28;20041;-84
2023/03/22 12:34:46;;;;;;;10.75;3.60;;;11.20;99.90;;;;;;5028558;28;20401;-84
2023/03/22 12:37:32;;;;;;;7.40;3.67;;;11.20;99.90;;;;;;5016794;28;20050;-84
2023/03/22 12:40:00;;;;;;;;;;;11.30;99.90;;;;;;5034423;28;20033;-83
2023/03/22 12:42:35;;;;;;;6.93;4.00;;;11.30;99.90;;;;;;5032027;28;19925;-84
2023/03/22 12:45:10;;;;;;;6.85;4.00;;;11.20;99.90;;;;;;5003081;28;20128;-83
2023/03/22 12:47:40;;;;;;;9.35;4.28;;;11.20;99.90;;;;;;5003452;28;20417;-84
2023/03/22 12:50:17;;;;;;;6.65;3.90;;;11.20;99.90;;;;;;4997087;28;20045;-84
2023/03/22 12:52:48;;;;;;;10.07;4.50;;;11.20;99.90;;;;;;4999133;28;20049;-84
2023/03/22 12:55:26;;;;;;;9.82;4.53;;;11.10;99.90;;;;;;4999805;28;20033;-83
2023/03/22 12:57:53;;;;;;;5.80;4.05;;;11.20;99.90;;;;;;5018478;28;20518;-83